Current | Forecast
Updated: 8:00 AM CEST on May 01, 2017
Observed at Prague, Czech Republic
Temperature 7°C
Windchill 3°C
Humidity 76%
Dew Point 3°C
Wind East at 22 km/h
Pressure 1011 hPa (Steady)
Conditions Clear
Visibility -
UV N/A
Clouds
Yesterday's Maximum 13°C
Yesterday's Minimum 3°C approx.
Yesterday's Heating Degree Days 19 approx.
Sunrise5:38 AM CEST
Sunset8:23 PM CEST
Moon Rise10:06 AM CEST
Moon Set12:58 AM CEST
Moon PhaseMoon Phase
Waxing Crescent
Raw METARMETAR LKPR 010600Z 10012KT CAVOK 07/03 Q1011 NOSIG


Monday
. High: 66° F.
Tuesday
. High: 75° F.
Wednesday
. High: 84° F.
Thursday
. High: 62° F.
Friday
. High: 66° F.
Saturday
. High: 73° F.
Sunday
. High: 77° F.
Monday
. High: 73° F.

Units: English | Metric

Find the Weather for any City, State or Zipcode, or Country:

U.S. State List | Severe Weather | Tropical Storms | Ski Conditions
United States | Canada | Central America | South America | Asia | Europe | Australia | Africa | Islands

Weather Underground

© Copyright 2017
The Weather Company, LLC